Time;durP1;ratioP1;P1;durP2;ratioP2;P2;SDS_P1;SDS_P2;PMS_P1;PMS_P2;Temp;Humidity;BMP_temperature;BMP_pressure;BME280_temperature;BME280_humidity;BME280_pressure;Samples;Min_cycle;Max_cycle;Signal;HPM_P1;HPM_P2
2022/02/11 00:00:53;;;;;;;4.38;2.50;;;7.70;97.50;;;;;;5030907;28;20107;-63
2022/02/11 00:08:29;;;;;;;4.70;2.45;;;7.80;97.50;;;;;;5033360;28;20030;-62
2022/02/11 00:10:55;;;;;;;4.63;1.98;;;7.80;97.50;;;;;;5030270;28;20129;-62
2022/02/11 00:13:21;;;;;;;4.10;2.30;;;7.80;97.50;;;;;;5032209;28;20112;-62
2022/02/11 00:15:47;;;;;;;4.45;2.75;;;7.80;97.50;;;;;;5031038;28;20033;-62
2022/02/11 00:18:16;;;;;;;5.40;1.90;;;7.80;97.40;;;;;;5033124;28;20104;-62
2022/02/11 00:20:46;;;;;;;6.78;2.22;;;7.80;97.40;;;;;;5025759;28;20032;-62
2022/02/11 00:23:12;;;;;;;6.28;2.15;;;7.90;97.40;;;;;;5031583;28;20425;-62
2022/02/11 00:25:41;;;;;;;3.65;1.80;;;7.80;97.40;;;;;;5022201;28;20033;-60
2022/02/11 00:29:02;;;;;;;7.30;2.10;;;7.90;97.40;;;;;;5032914;28;20116;-62
2022/02/11 00:33:45;;;;;;;7.40;2.15;;;7.90;97.30;;;;;;5032274;28;20038;-61
2022/02/11 00:36:13;;;;;;;4.50;1.83;;;7.90;97.30;;;;;;5031777;28;20030;-61
2022/02/11 00:44:49;;;;;;;4.70;2.20;;;7.90;97.20;;;;;;5032693;28;20044;-62
2022/02/11 01:03:01;;;;;;;3.25;1.67;;;7.90;97.20;;;;;;5015038;28;20065;-62
2022/02/11 01:05:27;;;;;;;4.75;1.90;;;7.80;97.20;;;;;;5022885;28;20060;-61
2022/02/11 01:07:53;;;;;;;3.65;1.60;;;7.80;97.20;;;;;;5032255;28;20088;-63
2022/02/11 01:10:18;;;;;;;3.60;2.30;;;7.80;97.20;;;;;;5030481;28;20037;-63
2022/02/11 01:12:44;;;;;;;6.38;2.40;;;7.80;97.20;;;;;;5032019;28;20061;-60
2022/02/11 01:15:10;;;;;;;5.57;2.40;;;7.90;97.30;;;;;;5029068;28;20056;-61
2022/02/11 01:17:42;;;;;;;5.22;2.25;;;7.80;97.30;;;;;;5031998;28;20057;-62
2022/02/11 01:20:43;;;;;;;3.35;2.17;;;7.80;97.30;;;;;;5025294;28;20036;-61
2022/02/11 01:23:13;;;;;;;4.25;2.58;;;7.80;97.30;;;;;;5031121;28;20122;-61
2022/02/11 01:28:15;;;;;;;3.95;2.75;;;7.80;97.40;;;;;;5029375;28;20457;-61
2022/02/11 01:33:54;;;;;;;5.47;2.97;;;7.90;97.40;;;;;;5031002;28;20025;-61
2022/02/11 01:43:01;;;;;;;6.57;2.95;;;7.80;97.50;;;;;;5031158;28;20044;-61
2022/02/11 01:45:06;;;;;;;6.43;4.03;;;7.80;97.50;;;;;;5029948;28;20222;-61
2022/02/11 01:50:25;;;;;;;6.25;2.92;;;7.80;97.50;;;;;;5029053;28;20459;-61
2022/02/11 01:58:35;;;;;;;4.32;2.85;;;7.80;97.60;;;;;;5031457;28;20034;-62
2022/02/11 02:01:30;;;;;;;6.45;3.20;;;7.80;97.60;;;;;;5019061;28;20561;-62
2022/02/11 02:04:12;;;;;;;5.55;3.05;;;7.80;97.60;;;;;;5030923;28;20037;-62
2022/02/11 02:10:00;;;;;;;7.28;3.75;;;7.80;97.70;;;;;;5030543;28;20017;-61
2022/02/11 02:15:06;;;;;;;8.00;3.42;;;7.80;97.70;;;;;;5012440;28;20026;-62
2022/02/11 02:21:11;;;;;;;8.25;3.55;;;7.80;97.70;;;;;;5019247;28;20030;-62
2022/02/11 02:25:53;;;;;;;6.38;3.53;;;7.80;97.70;;;;;;5029751;28;20038;-62
2022/02/11 02:33:58;;;;;;;10.18;3.65;;;7.80;97.80;;;;;;5030774;28;20516;-62
2022/02/11 02:36:43;;;;;;;;;;;7.80;97.80;;;;;;5030016;28;20057;-62
2022/02/11 02:39:30;;;;;;;6.95;3.75;;;7.80;97.70;;;;;;5029380;28;20398;-62
2022/02/11 02:50:47;;;;;;;8.20;4.45;;;7.80;97.80;;;;;;5014569;28;20495;-62
2022/02/11 02:58:54;;;;;;;8.95;4.82;;;7.80;98.00;;;;;;5011589;28;20176;-62
2022/02/11 03:14:38;;;;;;;7.18;4.15;;;7.90;98.00;;;;;;5020633;28;20434;-62
2022/02/11 03:15:13;;;;;;;5.30;3.25;;;7.90;97.90;;;;;;5028049;28;20291;-61
2022/02/11 03:31:41;;;;;;;6.87;3.93;;;8.10;97.80;;;;;;5031990;28;20037;-62
2022/02/11 03:51:10;;;;;;;10.50;3.90;;;8.10;97.60;;;;;;5019300;28;20026;-62
2022/02/11 03:54:09;;;;;;;8.38;3.72;;;8.20;97.60;;;;;;5033085;28;20017;-62
2022/02/11 03:57:23;;;;;;;9.85;3.95;;;8.20;97.50;;;;;;5031857;28;20041;-61
2022/02/11 04:20:06;;;;;;;7.55;4.32;;;8.20;97.50;;;;;;5031525;28;20034;-62
2022/02/11 04:27:43;;;;;;;8.60;5.82;;;8.30;97.40;;;;;;5024175;28;20064;-62
2022/02/11 04:55:05;;;;;;;9.60;6.05;;;8.20;97.40;;;;;;5029833;28;20381;-62
2022/02/11 05:00:16;;;;;;;9.10;5.50;;;8.10;97.40;;;;;;5029087;28;20091;-60
2022/02/11 05:02:43;;;;;;;9.52;5.90;;;8.10;97.40;;;;;;5030519;28;20049;-61
2022/02/11 05:05:09;;;;;;;11.80;6.20;;;8.20;97.40;;;;;;5029440;28;20028;-61
2022/02/11 05:07:36;;;;;;;11.45;5.90;;;8.10;97.30;;;;;;5032241;28;20026;-61
2022/02/11 05:10:02;;;;;;;10.93;6.75;;;8.20;97.30;;;;;;5028584;28;20022;-61
2022/02/11 05:12:28;;;;;;;9.68;5.45;;;8.10;97.20;;;;;;5028910;28;20037;-61
2022/02/11 05:14:53;;;;;;;8.93;5.82;;;8.10;97.20;;;;;;5027772;28;20017;-61
2022/02/11 05:17:19;;;;;;;11.35;5.65;;;8.10;97.20;;;;;;5022845;28;20029;-61
2022/02/11 05:19:44;;;;;;;8.75;4.93;;;8.10;97.10;;;;;;5030672;28;20021;-62
2022/02/11 05:22:10;;;;;;;10.73;5.35;;;8.00;97.10;;;;;;5026538;28;20125;-61
2022/02/11 05:24:35;;;;;;;8.30;5.30;;;8.00;97.10;;;;;;5017411;28;20065;-62
2022/02/11 05:27:01;;;;;;;10.73;4.82;;;8.00;97.20;;;;;;5027363;28;20485;-61
2022/02/11 05:29:26;;;;;;;9.73;5.10;;;8.00;97.20;;;;;;5031533;28;20112;-62
2022/02/11 05:31:52;;;;;;;9.20;4.43;;;8.00;97.20;;;;;;5029024;28;20025;-62
2022/02/11 05:34:17;;;;;;;10.10;4.65;;;8.00;97.20;;;;;;5031954;28;20029;-62
2022/02/11 05:36:43;;;;;;;11.32;5.03;;;7.90;97.20;;;;;;5028629;28;21352;-62
2022/02/11 05:39:08;;;;;;;10.25;4.60;;;7.90;97.20;;;;;;5031348;28;20125;-62
2022/02/11 05:41:34;;;;;;;9.13;4.95;;;7.90;97.10;;;;;;5025951;28;20079;-62
2022/02/11 05:43:59;;;;;;;10.20;5.53;;;7.90;97.10;;;;;;5030098;28;20084;-61
2022/02/11 05:46:27;;;;;;;10.13;4.93;;;7.90;97.10;;;;;;5016981;28;20476;-62
2022/02/11 05:48:53;;;;;;;12.07;5.20;;;7.90;97.10;;;;;;5020561;28;20066;-61
2022/02/11 05:51:19;;;;;;;10.98;4.65;;;7.90;97.10;;;;;;5029835;28;20492;-61
2022/02/11 05:53:45;;;;;;;10.40;4.70;;;7.90;97.10;;;;;;5031482;28;20036;-61
2022/02/11 05:56:10;;;;;;;11.05;6.20;;;7.90;97.10;;;;;;5029783;28;20041;-62
2022/02/11 05:58:38;;;;;;;12.50;5.43;;;7.90;97.00;;;;;;5030614;28;20029;-61
2022/02/11 06:01:04;;;;;;;13.43;5.28;;;7.90;97.00;;;;;;5018339;28;20140;-60
2022/02/11 06:03:30;;;;;;;10.00;5.53;;;7.90;97.00;;;;;;5016671;28;20041;-60
2022/02/11 06:05:55;;;;;;;11.30;5.28;;;7.90;97.00;;;;;;5029537;28;20029;-61
2022/02/11 06:08:21;;;;;;;8.40;5.10;;;7.90;97.00;;;;;;5030969;28;20026;-61
2022/02/11 06:10:47;;;;;;;13.30;5.05;;;7.80;97.00;;;;;;5021284;28;20026;-62
2022/02/11 06:13:13;;;;;;;11.23;5.07;;;7.80;97.00;;;;;;5018398;28;20032;-60
2022/02/11 06:15:38;;;;;;;9.52;4.55;;;7.90;97.00;;;;;;5022463;28;20041;-61
2022/02/11 06:18:04;;;;;;;9.75;4.97;;;7.90;97.00;;;;;;5018017;28;20476;-61
2022/02/11 06:20:29;;;;;;;9.88;4.80;;;7.90;97.00;;;;;;5028018;28;20096;-60
2022/02/11 06:22:56;;;;;;;10.98;5.45;;;7.80;97.00;;;;;;5025159;28;20033;-60
2022/02/11 06:25:21;;;;;;;9.85;4.85;;;7.90;97.00;;;;;;5026020;28;20041;-60
2022/02/11 06:27:47;;;;;;;8.25;4.40;;;7.90;97.00;;;;;;5030344;28;20029;-60
2022/02/11 06:30:13;;;;;;;10.75;4.95;;;7.90;96.90;;;;;;5026981;28;20117;-60
2022/02/11 06:32:39;;;;;;;8.38;4.10;;;7.90;97.00;;;;;;5030251;28;20037;-60
2022/02/11 06:35:05;;;;;;;9.45;4.38;;;7.90;96.90;;;;;;5028965;28;20038;-61
2022/02/11 06:37:30;;;;;;;9.85;4.60;;;7.90;96.90;;;;;;5030606;28;20081;-61
2022/02/11 06:39:56;;;;;;;6.50;4.28;;;7.90;96.90;;;;;;5029487;28;20021;-61
2022/02/11 06:42:21;;;;;;;11.20;5.13;;;7.90;97.00;;;;;;5029007;28;20029;-61
2022/02/11 06:44:47;;;;;;;12.85;4.72;;;7.90;96.90;;;;;;5029561;28;20021;-61
2022/02/11 06:47:12;;;;;;;13.52;5.28;;;8.00;96.90;;;;;;5024746;28;20120;-61
2022/02/11 06:49:38;;;;;;;11.80;4.82;;;8.00;96.90;;;;;;5029736;28;20113;-60
2022/02/11 06:52:04;;;;;;;9.88;5.25;;;7.90;96.80;;;;;;5029223;28;20224;-61
2022/02/11 06:54:29;;;;;;;9.88;5.35;;;8.00;96.90;;;;;;5018837;28;20367;-61
2022/02/11 06:56:54;;;;;;;12.88;4.75;;;8.00;96.80;;;;;;5027557;28;20057;-61
2022/02/11 06:59:20;;;;;;;13.38;5.55;;;8.00;96.80;;;;;;5031080;28;20028;-61
2022/02/11 07:01:46;;;;;;;11.15;5.72;;;8.00;96.80;;;;;;5031465;28;20377;-61
2022/02/11 07:04:12;;;;;;;9.48;5.90;;;8.00;96.80;;;;;;5033698;28;20323;-61
2022/02/11 07:06:37;;;;;;;11.55;5.95;;;8.10;96.80;;;;;;5032731;28;20025;-61
2022/02/11 07:09:04;;;;;;;11.50;5.45;;;8.10;96.80;;;;;;5034248;28;20076;-61
2022/02/11 07:11:29;;;;;;;12.95;5.68;;;8.10;96.80;;;;;;5024595;28;20083;-61
2022/02/11 07:13:55;;;;;;;13.23;5.07;;;8.10;96.70;;;;;;5034029;28;20037;-61
2022/02/11 07:16:20;;;;;;;9.35;4.78;;;8.10;96.80;;;;;;5031754;28;20033;-61
2022/02/11 07:18:45;;;;;;;13.15;5.25;;;8.10;96.70;;;;;;5034501;28;20104;-61
2022/02/11 07:21:11;;;;;;;11.63;5.18;;;8.20;96.70;;;;;;5032551;28;20476;-61
2022/02/11 07:23:36;;;;;;;8.93;5.10;;;8.20;96.60;;;;;;5034031;28;20049;-61
2022/02/11 07:26:02;;;;;;;11.00;5.07;;;8.20;96.60;;;;;;5026127;28;20032;-61
2022/02/11 07:28:27;;;;;;;13.10;6.30;;;8.20;96.60;;;;;;5033989;28;20025;-61
2022/02/11 07:30:53;;;;;;;11.50;5.32;;;8.20;96.60;;;;;;5031754;28;20400;-61
2022/02/11 07:33:18;;;;;;;9.20;4.80;;;8.20;96.60;;;;;;5032586;28;20025;-61
2022/02/11 07:35:44;;;;;;;11.98;4.97;;;8.20;96.60;;;;;;5031946;28;20076;-60
2022/02/11 07:38:10;;;;;;;13.60;5.15;;;8.30;96.60;;;;;;5033558;28;20206;-60
2022/02/11 07:40:39;;;;;;;9.40;5.20;;;8.30;96.50;;;;;;5032647;28;20173;-60
2022/02/11 07:43:04;;;;;;;8.73;5.18;;;8.30;96.50;;;;;;5031441;28;20038;-61
2022/02/11 07:45:30;;;;;;;10.07;6.53;;;8.30;96.40;;;;;;5031822;28;20025;-59
2022/02/11 07:47:56;;;;;;;12.45;5.35;;;8.40;96.40;;;;;;5033543;28;20398;-60
2022/02/11 07:50:21;;;;;;;13.23;4.95;;;8.40;96.30;;;;;;5023528;28;20461;-60
2022/02/11 07:52:47;;;;;;;10.35;4.90;;;8.40;96.30;;;;;;5031354;28;20033;-60
2022/02/11 07:55:12;;;;;;;10.25;5.20;;;8.40;96.20;;;;;;5030693;28;20461;-63
2022/02/11 07:57:38;;;;;;;11.02;5.20;;;8.40;96.20;;;;;;5033357;28;20047;-61
2022/02/11 08:00:05;;;;;;;12.65;5.63;;;8.40;96.10;;;;;;5031902;28;20053;-61
2022/02/11 08:02:34;;;;;;;10.38;4.93;;;8.40;96.00;;;;;;5025600;28;20030;-61
2022/02/11 08:05:00;;;;;;;11.27;4.75;;;8.50;95.90;;;;;;5019162;28;20053;-61
2022/02/11 08:07:25;;;;;;;9.40;4.93;;;8.50;95.90;;;;;;5032970;28;20516;-60
2022/02/11 08:09:51;;;;;;;13.20;5.72;;;8.50;95.90;;;;;;5028988;28;20058;-61
2022/02/11 08:12:17;;;;;;;12.38;5.22;;;8.50;95.90;;;;;;5027216;28;20034;-61
2022/02/11 08:14:43;;;;;;;9.23;4.82;;;8.50;95.90;;;;;;5012904;28;20022;-61
2022/02/11 08:17:09;;;;;;;10.73;4.57;;;8.50;95.80;;;;;;5027006;28;20034;-61
2022/02/11 08:19:34;;;;;;;11.45;4.38;;;8.50;95.60;;;;;;5019907;28;20034;-61
2022/02/11 08:22:00;;;;;;;8.45;4.15;;;8.40;95.50;;;;;;5023986;28;20034;-62
2022/02/11 08:24:25;;;;;;;9.63;4.93;;;8.40;95.50;;;;;;5034583;28;20025;-62
2022/02/11 08:26:51;;;;;;;10.73;4.95;;;8.30;95.50;;;;;;5028984;28;20065;-61
2022/02/11 08:29:21;;;;;;;9.45;4.70;;;8.40;95.50;;;;;;5017012;28;20128;-62
2022/02/11 08:31:47;;;;;;;10.48;4.60;;;8.40;95.40;;;;;;5030617;28;20519;-62
2022/02/11 08:34:12;;;;;;;7.63;4.38;;;8.30;95.20;;;;;;5024310;28;20037;-62
2022/02/11 08:36:38;;;;;;;9.55;4.25;;;8.30;95.20;;;;;;5024415;28;20017;-62
2022/02/11 08:39:03;;;;;;;7.05;3.63;;;8.30;95.10;;;;;;5029780;28;20026;-62
2022/02/11 08:41:29;;;;;;;7.28;3.38;;;8.30;95.30;;;;;;5021512;28;20029;-62
2022/02/11 08:43:54;;;;;;;8.65;3.83;;;8.40;95.50;;;;;;5027379;28;20383;-62
2022/02/11 08:46:24;;;;;;;5.80;3.25;;;8.40;95.60;;;;;;5034493;28;20017;-62
2022/02/11 08:48:49;;;;;;;10.32;3.67;;;8.50;95.40;;;;;;5027667;28;20037;-62
2022/02/11 08:51:15;;;;;;;8.35;4.15;;;8.40;95.30;;;;;;5021093;28;20025;-62
2022/02/11 08:53:41;;;;;;;9.10;4.05;;;8.40;95.20;;;;;;5024800;28;20113;-62
2022/02/11 08:56:08;;;;;;;7.78;3.55;;;8.50;95.20;;;;;;5028579;28;20116;-62
2022/02/11 08:58:34;;;;;;;9.32;3.90;;;8.50;95.20;;;;;;5033495;28;20026;-62
2022/02/11 09:01:00;;;;;;;8.18;3.67;;;8.50;95.10;;;;;;5021482;28;20080;-62
2022/02/11 09:03:26;;;;;;;9.18;3.50;;;8.50;95.10;;;;;;5026467;28;20048;-62
2022/02/11 09:05:51;;;;;;;10.38;4.25;;;8.50;95.10;;;;;;5027250;28;20426;-62
2022/02/11 09:08:17;;;;;;;5.47;3.30;;;8.50;95.20;;;;;;5014516;28;20030;-61
2022/02/11 09:10:47;;;;;;;5.50;3.30;;;8.50;95.20;;;;;;5011627;28;20052;-62
2022/02/11 09:13:13;;;;;;;8.18;3.67;;;8.50;95.30;;;;;;5033604;28;20025;-61
2022/02/11 09:15:38;;;;;;;7.75;2.97;;;8.50;95.30;;;;;;5028160;28;20494;-62
2022/02/11 09:18:04;;;;;;;6.82;3.85;;;8.50;95.40;;;;;;5031854;28;20033;-62
2022/02/11 09:20:29;;;;;;;7.85;3.42;;;8.50;95.40;;;;;;5028835;28;20025;-62
2022/02/11 09:22:55;;;;;;;8.30;3.92;;;8.50;95.50;;;;;;5021817;28;20043;-62
2022/02/11 09:25:21;;;;;;;6.55;4.05;;;8.50;95.50;;;;;;5036252;28;20029;-62
2022/02/11 09:27:46;;;;;;;5.43;3.35;;;8.50;95.60;;;;;;5029073;28;20495;-61
2022/02/11 09:30:18;;;;;;;9.23;3.72;;;8.50;95.60;;;;;;5037627;28;20045;-62
2022/02/11 09:32:45;;;;;;;8.13;3.63;;;8.50;95.60;;;;;;5037472;28;20039;-62
2022/02/11 09:35:13;;;;;;;11.77;3.95;;;8.50;95.60;;;;;;5039904;28;20168;-62
2022/02/11 09:37:39;;;;;;;8.98;3.78;;;8.60;95.70;;;;;;5029832;28;20029;-62
2022/02/11 09:40:08;;;;;;;11.13;3.97;;;8.60;95.70;;;;;;5024707;28;20065;-62
2022/02/11 09:42:34;;;;;;;8.35;4.53;;;8.60;95.70;;;;;;5010696;28;20033;-62
2022/02/11 09:45:00;;;;;;;10.23;4.47;;;8.50;95.80;;;;;;5018165;28;20125;-62
2022/02/11 09:47:26;;;;;;;8.88;4.18;;;8.60;95.80;;;;;;5029400;28;20108;-62
2022/02/11 09:49:52;;;;;;;10.00;4.95;;;8.60;95.80;;;;;;5022812;28;20030;-62
2022/02/11 09:52:20;;;;;;;12.90;5.03;;;8.60;96.00;;;;;;5036839;28;20129;-64
2022/02/11 09:54:46;;;;;;;10.80;4.57;;;8.70;95.90;;;;;;5012493;28;20034;-63
2022/02/11 09:57:13;;;;;;;8.20;4.45;;;8.70;95.80;;;;;;5042890;28;20030;-63
2022/02/11 09:59:39;;;;;;;7.10;4.15;;;8.70;95.70;;;;;;5029095;28;20108;-63
2022/02/11 10:02:05;;;;;;;8.40;4.93;;;8.80;95.70;;;;;;5028562;28;20464;-63
2022/02/11 10:04:31;;;;;;;7.93;4.18;;;8.80;95.70;;;;;;5029458;28;20377;-64
2022/02/11 10:06:58;;;;;;;9.30;4.70;;;8.80;95.60;;;;;;5016962;28;20018;-62
2022/02/11 10:09:24;;;;;;;11.93;4.38;;;8.90;95.50;;;;;;5029890;28;20029;-64
2022/02/11 10:11:51;;;;;;;8.02;4.82;;;8.90;95.60;;;;;;5012338;28;20068;-62
2022/02/11 10:14:26;;;;;;;12.02;4.25;;;9.00;95.40;;;;;;5024730;28;20033;-63
2022/02/11 10:17:02;;;;;;;7.80;4.50;;;9.10;95.50;;;;;;5027954;28;20033;-63
2022/02/11 10:19:42;;;;;;;7.38;4.40;;;9.10;95.10;;;;;;5011625;28;20088;-63
2022/02/11 10:22:19;;;;;;;11.52;5.13;;;9.20;94.90;;;;;;5030384;28;20076;-63
2022/02/11 10:24:46;;;;;;;10.23;4.63;;;9.20;94.70;;;;;;5026861;28;20040;-63
2022/02/11 10:27:22;;;;;;;7.90;5.05;;;9.20;94.60;;;;;;5049485;28;20075;-63
2022/02/11 10:29:50;;;;;;;11.00;4.95;;;9.10;94.60;;;;;;5011141;28;20528;-63
2022/02/11 10:32:15;;;;;;;12.68;5.40;;;9.10;94.60;;;;;;5045819;28;20033;-63
2022/02/11 10:34:50;;;;;;;11.00;5.03;;;9.10;94.50;;;;;;5031486;28;20024;-63
2022/02/11 10:37:16;;;;;;;9.75;4.07;;;9.10;94.40;;;;;;5050614;28;20111;-63
2022/02/11 10:39:41;;;;;;;10.35;5.55;;;9.10;94.40;;;;;;5053132;28;20116;-63
2022/02/11 10:42:11;;;;;;;9.32;4.78;;;9.10;94.20;;;;;;5033151;28;20041;-63
2022/02/11 10:44:39;;;;;;;9.13;4.53;;;9.10;94.20;;;;;;5035687;28;20033;-63
2022/02/11 10:47:14;;;;;;;8.95;4.82;;;9.10;94.20;;;;;;5032687;28;20045;-63
2022/02/11 10:49:44;;;;;;;9.00;4.57;;;9.20;94.20;;;;;;5028180;28;20141;-62
2022/02/11 10:52:14;;;;;;;12.60;5.15;;;9.20;94.20;;;;;;5028857;28;20052;-63
2022/02/11 10:54:41;;;;;;;10.10;4.70;;;9.30;94.20;;;;;;5023619;28;20030;-63
2022/02/11 10:57:10;;;;;;;11.50;4.72;;;9.30;94.20;;;;;;5032208;28;20380;-63
2022/02/11 10:59:41;;;;;;;10.38;4.68;;;9.40;94.20;;;;;;5032592;28;20029;-63
2022/02/11 11:02:17;;;;;;;9.95;4.20;;;9.40;94.30;;;;;;5023567;28;20052;-64
2022/02/11 11:04:47;;;;;;;10.68;3.88;;;9.50;94.30;;;;;;5031489;28;20029;-62
2022/02/11 11:07:23;;;;;;;15.82;4.90;;;9.60;94.30;;;;;;5022554;28;20045;-63
2022/02/11 11:09:51;;;;;;;7.18;3.90;;;9.70;94.10;;;;;;5029985;28;20034;-63
2022/02/11 11:12:18;;;;;;;9.95;3.85;;;9.80;93.90;;;;;;5024397;28;20045;-63
2022/02/11 11:14:45;;;;;;;7.70;3.72;;;9.90;93.60;;;;;;5022246;28;20404;-63
2022/02/11 11:17:14;;;;;;;6.97;4.00;;;9.90;93.30;;;;;;5027020;28;20041;-63
2022/02/11 11:19:39;;;;;;;9.75;5.55;;;10.00;93.20;;;;;;5022839;28;20165;-63
2022/02/11 11:22:13;;;;;;;8.43;4.38;;;10.00;93.10;;;;;;5022242;28;20479;-62
2022/02/11 11:24:44;;;;;;;8.37;4.30;;;10.10;92.90;;;;;;5032018;28;20056;-62
2022/02/11 11:27:11;;;;;;;9.02;4.47;;;10.10;92.90;;;;;;5020510;28;20057;-63
2022/02/11 11:29:36;;;;;;;7.43;4.15;;;10.20;92.70;;;;;;5027393;28;20062;-63
2022/02/11 11:32:03;;;;;;;7.68;4.00;;;10.20;92.50;;;;;;5020673;28;20117;-63
2022/02/11 11:34:31;;;;;;;9.10;3.80;;;10.20;92.40;;;;;;5024477;28;20120;-63
2022/02/11 11:37:09;;;;;;;6.15;3.30;;;10.10;92.20;;;;;;5016141;28;20037;-62
2022/02/11 11:39:36;;;;;;;6.78;3.88;;;10.10;92.00;;;;;;5026676;28;20025;-63
2022/02/11 11:42:09;;;;;;;7.90;3.90;;;10.10;91.70;;;;;;5032162;28;20038;-63
2022/02/11 11:44:49;;;;;;;7.78;3.55;;;10.00;91.60;;;;;;5029594;28;20026;-62
2022/02/11 11:47:45;;;;;;;6.95;3.30;;;9.90;91.40;;;;;;5032272;28;20033;-62
2022/02/11 11:50:18;;;;;;;7.10;3.30;;;9.90;91.40;;;;;;5008535;28;20458;-63
2022/02/11 11:52:46;;;;;;;9.93;3.50;;;9.90;91.40;;;;;;5016137;28;20033;-62
2022/02/11 11:55:21;;;;;;;9.05;3.75;;;9.80;91.30;;;;;;5053308;28;20037;-63
2022/02/11 11:57:46;;;;;;;6.22;3.25;;;9.70;91.30;;;;;;5051214;28;20028;-62
2022/02/11 12:00:12;;;;;;;7.35;3.70;;;9.70;91.30;;;;;;5044040;28;20374;-63
2022/02/11 12:02:38;;;;;;;4.85;3.53;;;9.70;91.30;;;;;;5012672;28;20053;-62
2022/02/11 12:05:05;;;;;;;6.18;3.72;;;9.60;91.40;;;;;;5052691;28;20133;-63
2022/02/11 12:07:34;;;;;;;8.57;3.78;;;9.60;91.20;;;;;;5052492;28;20029;-62
2022/02/11 12:10:02;;;;;;;5.50;3.35;;;9.60;91.20;;;;;;5047270;28;20017;-62
2022/02/11 12:12:29;;;;;;;7.82;3.75;;;9.60;91.30;;;;;;5053109;28;20031;-62
2022/02/11 12:15:02;;;;;;;4.93;3.28;;;9.60;91.40;;;;;;5036276;28;20477;-62
2022/02/11 12:17:29;;;;;;;7.35;3.60;;;9.60;91.40;;;;;;5026702;28;20030;-62
2022/02/11 12:19:56;;;;;;;7.00;3.55;;;9.60;91.60;;;;;;5038668;28;20669;-62
2022/02/11 12:22:24;;;;;;;6.97;3.00;;;9.70;91.50;;;;;;5023525;28;20117;-63
2022/02/11 12:27:39;;;;;;;4.85;2.95;;;9.60;91.30;;;;;;5035489;28;20030;-62
2022/02/11 12:30:15;;;;;;;5.53;2.90;;;9.60;91.30;;;;;;5046667;28;20033;-62
2022/02/11 12:32:45;;;;;;;6.65;3.35;;;9.60;91.30;;;;;;5052742;28;20032;-62
2022/02/11 12:35:13;;;;;;;5.45;2.90;;;9.60;91.40;;;;;;5024873;28;20038;-62
2022/02/11 12:37:40;;;;;;;6.47;3.10;;;9.60;91.40;;;;;;5012759;28;20018;-62
2022/02/11 12:40:21;;;;;;;6.25;3.28;;;9.70;91.40;;;;;;5016461;28;20022;-63
2022/02/11 12:42:52;;;;;;;7.65;3.92;;;9.70;91.30;;;;;;5032098;28;20041;-62
2022/02/11 12:45:42;;;;;;;7.75;3.42;;;9.70;91.40;;;;;;5032506;28;20025;-62
2022/02/11 12:48:13;;;;;;;5.50;3.47;;;9.70;91.40;;;;;;5029414;28;20072;-63
2022/02/11 12:50:44;;;;;;;7.30;3.60;;;9.70;91.40;;;;;;5051029;28;20040;-63
2022/02/11 12:53:13;;;;;;;6.15;3.72;;;9.70;91.30;;;;;;5012178;28;20144;-63
2022/02/11 12:55:39;;;;;;;6.80;3.92;;;9.70;91.30;;;;;;5049617;28;20028;-63
2022/02/11 12:58:13;;;;;;;6.63;3.58;;;9.60;91.30;;;;;;5047604;28;20075;-62
2022/02/11 13:00:40;;;;;;;7.70;3.47;;;9.60;91.40;;;;;;5052188;28;20053;-62
2022/02/11 13:03:08;;;;;;;4.80;3.33;;;9.60;91.50;;;;;;5047595;28;20399;-62
2022/02/11 13:05:44;;;;;;;5.13;3.30;;;9.60;91.60;;;;;;5032105;28;20424;-63
2022/02/11 13:08:21;;;;;;;6.03;3.67;;;9.50;91.60;;;;;;5021733;28;20453;-62
2022/02/11 13:11:02;;;;;;;8.18;4.00;;;9.50;91.60;;;;;;5012479;28;20069;-62
2022/02/11 13:13:30;;;;;;;8.52;4.20;;;9.40;91.80;;;;;;5026611;28;20413;-62
2022/02/11 13:15:56;;;;;;;5.47;3.50;;;9.40;91.90;;;;;;5032141;28;20024;-62
2022/02/11 13:18:24;;;;;;;8.23;4.40;;;9.40;92.10;;;;;;5040153;28;20116;-63
2022/02/11 13:20:54;;;;;;;4.60;3.90;;;9.40;92.20;;;;;;5051856;28;20029;-62
2022/02/11 13:23:22;;;;;;;6.05;3.83;;;9.40;92.20;;;;;;5019148;28;20038;-63
2022/02/11 13:25:49;;;;;;;7.07;3.85;;;9.40;92.20;;;;;;5021525;28;20112;-63
2022/02/11 13:28:17;;;;;;;9.25;3.83;;;9.50;92.30;;;;;;5020112;28;20153;-63
2022/02/11 13:30:47;;;;;;;7.25;3.90;;;9.40;92.30;;;;;;5011172;28;20429;-62
2022/02/11 13:33:26;;;;;;;4.20;3.20;;;9.50;92.30;;;;;;5022673;28;20024;-62
2022/02/11 13:35:56;;;;;;;5.07;3.38;;;9.30;92.30;;;;;;5036083;28;20490;-62
2022/02/11 13:38:22;;;;;;;5.50;3.63;;;9.40;92.30;;;;;;5051907;28;20479;-62
2022/02/11 13:40:53;;;;;;;4.05;3.20;;;9.40;92.40;;;;;;5041948;28;20104;-62
2022/02/11 13:43:19;;;;;;;5.13;4.00;;;9.40;92.40;;;;;;5034941;28;20136;-62
2022/02/11 13:45:51;;;;;;;4.43;3.47;;;9.30;92.30;;;;;;5016066;28;20101;-63
2022/02/11 13:48:17;;;;;;;5.50;3.45;;;9.30;92.40;;;;;;5028053;28;20721;-63
2022/02/11 13:51:05;;;;;;;3.42;2.92;;;9.30;92.40;;;;;;5028355;28;20441;-63
2022/02/11 13:53:40;;;;;;;4.65;3.13;;;9.30;92.40;;;;;;5022459;28;20037;-64
2022/02/11 13:56:12;;;;;;;5.22;3.17;;;9.20;92.40;;;;;;5030011;28;20033;-64
2022/02/11 13:58:40;;;;;;;4.65;3.25;;;9.20;92.40;;;;;;5027672;28;20591;-63
2022/02/11 14:01:28;;;;;;;4.95;3.65;;;9.10;92.40;;;;;;5027705;28;20405;-63
2022/02/11 14:04:12;;;;;;;6.15;4.10;;;9.20;92.50;;;;;;5029157;28;20512;-62
2022/02/11 14:06:48;;;;;;;5.72;3.90;;;9.20;92.60;;;;;;5028081;28;20033;-63
2022/02/11 14:09:28;;;;;;;5.05;3.78;;;9.20;92.60;;;;;;5015231;28;20489;-62
2022/02/11 14:11:54;;;;;;;5.00;4.00;;;9.30;92.50;;;;;;5027432;28;20082;-62
2022/02/11 14:14:21;;;;;;;7.22;4.63;;;9.30;92.50;;;;;;5028102;28;20076;-62
2022/02/11 14:16:47;;;;;;;4.70;4.10;;;9.40;92.50;;;;;;5027035;28;20025;-63
2022/02/11 14:19:17;;;;;;;5.75;4.35;;;9.40;92.30;;;;;;5046186;28;20120;-62
2022/02/11 14:21:43;;;;;;;6.28;4.30;;;9.40;92.30;;;;;;5034534;28;20108;-63
2022/02/11 14:24:09;;;;;;;6.25;4.32;;;9.40;92.20;;;;;;5027484;28;20116;-64
2022/02/11 14:26:36;;;;;;;7.47;4.63;;;9.50;92.30;;;;;;5018493;28;20045;-63
2022/02/11 14:29:02;;;;;;;5.97;4.35;;;9.40;92.20;;;;;;5021027;28;20033;-63
2022/02/11 14:31:27;;;;;;;6.18;4.03;;;9.50;92.20;;;;;;5029358;28;20037;-63
2022/02/11 14:33:53;;;;;;;5.90;4.55;;;9.50;92.10;;;;;;5017255;28;20037;-63
2022/02/11 14:36:18;;;;;;;6.20;4.72;;;9.40;92.10;;;;;;5036395;28;20038;-63
2022/02/11 14:38:44;;;;;;;5.70;4.30;;;9.40;92.00;;;;;;5030501;28;20415;-63
2022/02/11 14:43:54;;;;;;;6.45;4.60;;;9.40;92.10;;;;;;5028355;28;20045;-64
2022/02/11 14:46:21;;;;;;;6.13;4.68;;;9.40;92.10;;;;;;5033912;28;20026;-64
2022/02/11 14:48:46;;;;;;;6.50;4.93;;;9.50;92.10;;;;;;5030148;28;20029;-64
2022/02/11 14:51:12;;;;;;;7.43;4.80;;;9.40;92.10;;;;;;5028366;28;20024;-63
2022/02/11 14:53:38;;;;;;;5.95;4.55;;;9.40;92.10;;;;;;5029969;28;20017;-63
2022/02/11 14:56:05;;;;;;;6.70;4.90;;;9.30;92.10;;;;;;5026110;28;20026;-63
2022/02/11 14:58:30;;;;;;;6.53;4.50;;;9.30;92.10;;;;;;5023407;28;20109;-63
2022/02/11 15:00:55;;;;;;;5.68;4.25;;;9.30;92.20;;;;;;5031255;28;20479;-64
2022/02/11 15:03:21;;;;;;;6.07;4.35;;;9.40;92.30;;;;;;5033276;28;20036;-63
2022/02/11 15:05:46;;;;;;;5.80;4.38;;;9.40;92.20;;;;;;5031906;28;20083;-63
2022/02/11 15:08:12;;;;;;;8.02;4.78;;;9.50;92.10;;;;;;5029657;28;20115;-63
2022/02/11 15:10:38;;;;;;;5.88;4.10;;;9.50;92.10;;;;;;5023827;28;20029;-63
2022/02/11 15:13:08;;;;;;;5.97;4.32;;;9.60;92.30;;;;;;5015280;28;20018;-62
2022/02/11 15:15:35;;;;;;;5.93;4.57;;;9.60;92.00;;;;;;5016770;28;20484;-63
2022/02/11 15:18:01;;;;;;;6.32;4.15;;;9.70;92.10;;;;;;5024754;28;20056;-63
2022/02/11 15:20:26;;;;;;;5.00;4.20;;;9.70;92.10;;;;;;5024643;28;20118;-63
2022/02/11 15:22:52;;;;;;;5.20;4.15;;;9.80;92.00;;;;;;5019489;28;20029;-63
2022/02/11 15:25:17;;;;;;;7.70;4.20;;;9.80;91.80;;;;;;5025190;28;20022;-63
2022/02/11 15:27:43;;;;;;;9.50;4.30;;;9.80;91.80;;;;;;5033468;28;20038;-63
2022/02/11 15:30:11;;;;;;;6.47;4.22;;;9.80;91.70;;;;;;5033686;28;20500;-63
2022/02/11 15:32:37;;;;;;;7.10;4.15;;;9.80;91.70;;;;;;5029008;28;20030;-63
2022/02/11 15:35:03;;;;;;;5.40;4.13;;;9.70;91.60;;;;;;5036993;28;20398;-63
2022/02/11 15:37:28;;;;;;;5.80;3.70;;;9.70;91.60;;;;;;5032626;28;20095;-63
2022/02/11 15:39:54;;;;;;;6.72;4.22;;;9.70;91.70;;;;;;5030401;28;20366;-63
2022/02/11 15:42:19;;;;;;;6.57;4.63;;;9.60;91.70;;;;;;5032134;28;20420;-64
2022/02/11 15:44:45;;;;;;;5.57;4.05;;;9.60;91.80;;;;;;5031652;28;20080;-63
2022/02/11 15:47:10;;;;;;;7.30;4.60;;;9.60;91.90;;;;;;5032427;28;20056;-63
2022/02/11 15:49:36;;;;;;;6.43;4.82;;;9.50;91.90;;;;;;5036805;28;20049;-63
2022/02/11 15:52:01;;;;;;;7.28;4.75;;;9.50;91.90;;;;;;5030769;28;20021;-63
2022/02/11 15:54:27;;;;;;;7.63;4.35;;;9.40;91.90;;;;;;5029625;28;20041;-63
2022/02/11 15:56:52;;;;;;;6.25;4.53;;;9.40;92.00;;;;;;5033885;28;20021;-63
2022/02/11 15:59:18;;;;;;;6.25;4.90;;;9.30;92.00;;;;;;5045286;28;20455;-62
2022/02/11 16:01:43;;;;;;;7.05;4.80;;;9.20;92.00;;;;;;5029426;28;20081;-62
2022/02/11 16:04:09;;;;;;;4.97;4.15;;;9.10;92.00;;;;;;5031925;28;20044;-62